Time;durP1;ratioP1;P1;durP2;ratioP2;P2;SDS_P1;SDS_P2;PMS_P1;PMS_P2;Temp;Humidity;BMP_temperature;BMP_pressure;BME280_temperature;BME280_humidity;BME280_pressure;Samples;Min_cycle;Max_cycle;Signal;HPM_P1;HPM_P2
2022/08/05 00:00:47;;;;;;;;;;;20.80;99.90;;;;;;5056396;28;19932;-70
2022/08/05 00:03:14;;;;;;;;;;;20.70;99.90;;;;;;5057516;28;19974;-70
2022/08/05 00:05:42;;;;;;;;;;;20.60;99.90;;;;;;5056717;28;19947;-70
2022/08/05 00:08:10;;;;;;;;;;;20.60;99.90;;;;;;5058234;28;19951;-70
2022/08/05 00:10:37;;;;;;;;;;;20.50;99.90;;;;;;5059567;28;20396;-70
2022/08/05 00:13:04;;;;;;;;;;;20.50;99.90;;;;;;5059103;28;20347;-70
2022/08/05 00:15:30;;;;;;;;;;;20.40;99.90;;;;;;5056961;28;20358;-70
2022/08/05 00:17:57;;;;;;;;;;;20.40;99.90;;;;;;5055115;28;19925;-70
2022/08/05 00:20:24;;;;;;;;;;;20.40;99.90;;;;;;5055423;28;20338;-70
2022/08/05 00:22:51;;;;;;;;;;;20.40;99.90;;;;;;5059404;28;20334;-70
2022/08/05 00:25:19;;;;;;;;;;;20.40;99.90;;;;;;5059203;28;20021;-70
2022/08/05 00:27:46;;;;;;;;;;;20.40;99.90;;;;;;5060719;28;19925;-69
2022/08/05 00:30:13;;;;;;;;;;;20.30;99.90;;;;;;5065393;28;19974;-70
2022/08/05 00:32:39;;;;;;;;;;;20.30;99.90;;;;;;5065702;28;19928;-70
2022/08/05 00:35:07;;;;;;;;;;;20.30;99.90;;;;;;5062977;28;19924;-70
2022/08/05 00:37:34;;;;;;;;;;;20.20;99.90;;;;;;5062202;28;19933;-68
2022/08/05 00:40:01;;;;;;;;;;;20.20;99.90;;;;;;5058016;28;19936;-67
2022/08/05 00:42:33;;;;;;;;;;;20.20;99.90;;;;;;5062284;28;20350;-68
2022/08/05 00:45:00;;;;;;;;;;;20.10;99.90;;;;;;5071566;28;19929;-68
2022/08/05 00:47:27;;;;;;;;;;;20.10;99.90;;;;;;5060389;28;19928;-68
2022/08/05 00:49:54;;;;;;;;;;;20.10;99.90;;;;;;5060663;28;19925;-68
2022/08/05 00:52:21;;;;;;;;;;;20.00;99.90;;;;;;5057043;28;19929;-68
2022/08/05 00:54:48;;;;;;;;;;;20.00;99.90;;;;;;5061583;28;19924;-69
2022/08/05 00:57:15;;;;;;;;;;;19.90;99.90;;;;;;5057679;28;19955;-69
2022/08/05 00:59:43;;;;;;;;;;;19.90;99.90;;;;;;5059929;28;20368;-68
2022/08/05 01:02:10;;;;;;;;;;;19.90;99.90;;;;;;5064376;28;19929;-69
2022/08/05 01:04:36;;;;;;;;;;;19.80;99.90;;;;;;5059295;28;19925;-68
2022/08/05 01:07:03;;;;;;;;;;;19.80;99.90;;;;;;5059250;28;19924;-68
2022/08/05 01:09:30;;;;;;;;;;;19.70;99.90;;;;;;5061413;28;19929;-69
2022/08/05 01:11:59;;;;;;;;;;;19.70;99.90;;;;;;5054372;28;20513;-68
2022/08/05 01:14:31;;;;;;;;;;;19.60;99.90;;;;;;5058781;28;20377;-68
2022/08/05 01:17:01;;;;;;;;;;;19.60;99.90;;;;;;5054401;28;20363;-69
2022/08/05 01:19:33;;;;;;;;;;;19.50;99.90;;;;;;5056029;28;19928;-69
2022/08/05 01:22:08;;;;;;;;;;;19.50;99.90;;;;;;5057728;28;19925;-69
2022/08/05 01:24:43;;;;;;;;;;;19.50;99.90;;;;;;5058309;28;20392;-69
2022/08/05 01:27:15;;;;;;;;;;;19.50;99.90;;;;;;5058183;28;19932;-69
2022/08/05 01:29:47;;;;;;;;;;;19.40;99.90;;;;;;5058830;28;19925;-69
2022/08/05 01:32:16;;;;;;;;;;;19.40;99.90;;;;;;5057006;28;19925;-69
2022/08/05 01:34:45;;;;;;;;;;;19.40;99.90;;;;;;5064184;28;19929;-69
2022/08/05 01:37:14;;;;;;;;;;;19.30;99.90;;;;;;5060656;28;19924;-69
2022/08/05 01:39:42;;;;;;;;;;;19.30;99.90;;;;;;5059557;28;20099;-69
2022/08/05 01:42:11;;;;;;;;;;;19.30;99.90;;;;;;5058824;28;19924;-69
2022/08/05 01:44:38;;;;;;;;;;;19.20;99.90;;;;;;5063657;28;19928;-69
2022/08/05 01:47:07;;;;;;;;;;;19.20;99.90;;;;;;5058519;28;19931;-69
2022/08/05 01:49:34;;;;;;;;;;;19.20;99.90;;;;;;5056093;28;19929;-69
2022/08/05 01:52:02;;;;;;;;;;;19.10;99.90;;;;;;5063394;28;20391;-69
2022/08/05 01:54:32;;;;;;;;;;;19.10;99.90;;;;;;5049279;28;19925;-69
2022/08/05 01:57:00;;;;;;;;;;;19.10;99.90;;;;;;5051047;28;19928;-69
2022/08/05 01:59:27;;;;;;;;;;;19.10;99.90;;;;;;5054334;28;20392;-69
2022/08/05 02:01:56;;;;;;;;;;;19.10;99.90;;;;;;5060984;28;19978;-69
2022/08/05 02:04:26;;;;;;;;;;;19.00;99.90;;;;;;5058357;28;20017;-69
2022/08/05 02:06:53;;;;;;;;;;;19.00;99.90;;;;;;5053642;28;19925;-69
2022/08/05 02:09:20;;;;;;;;;;;19.00;99.90;;;;;;5056159;28;20156;-69
2022/08/05 02:11:49;;;;;;;;;;;18.90;99.90;;;;;;5055386;28;20465;-69
2022/08/05 02:14:20;;;;;;;;;;;18.90;99.90;;;;;;5061390;28;19932;-69
2022/08/05 02:16:48;;;;;;;;;;;18.80;99.90;;;;;;5056201;28;19924;-69
2022/08/05 02:19:18;;;;;;;;;;;18.80;99.90;;;;;;5056940;28;19978;-69
2022/08/05 02:21:49;;;;;;;;;;;18.70;99.90;;;;;;5065283;28;19925;-69
2022/08/05 02:24:17;;;;;;;;;;;18.60;99.90;;;;;;5050848;28;19932;-69
2022/08/05 02:26:46;;;;;;;;;;;18.50;99.90;;;;;;5049158;28;19933;-69
2022/08/05 02:29:16;;;;;;;;;;;18.50;99.90;;;;;;5053381;28;19928;-69
2022/08/05 02:31:44;;;;;;;;;;;18.40;99.90;;;;;;5053522;28;19932;-69
2022/08/05 02:34:11;;;;;;;;;;;18.40;99.90;;;;;;5055661;28;20400;-68
2022/08/05 02:36:39;;;;;;;;;;;18.40;99.90;;;;;;5056880;28;20016;-69
2022/08/05 02:39:09;;;;;;;;;;;18.30;99.90;;;;;;5057371;28;19924;-69
2022/08/05 02:41:36;;;;;;;;;;;18.20;99.90;;;;;;5056171;28;20376;-69
2022/08/05 02:44:04;;;;;;;;;;;18.20;99.90;;;;;;5061104;28;19928;-69
2022/08/05 02:46:30;;;;;;;;;;;18.20;99.90;;;;;;5056985;28;20391;-69
2022/08/05 02:48:57;;;;;;;;;;;18.20;99.90;;;;;;5058657;28;19931;-69
2022/08/05 02:51:25;;;;;;;;;;;18.20;99.90;;;;;;5061479;28;19925;-69
2022/08/05 02:53:52;;;;;;;;;;;18.30;99.90;;;;;;5048781;28;19979;-69
2022/08/05 02:56:20;;;;;;;;;;;18.30;99.90;;;;;;5070189;28;19925;-69
2022/08/05 02:58:48;;;;;;;;;;;18.40;99.90;;;;;;5052053;28;20007;-67
2022/08/05 03:01:17;;;;;;;;;;;18.30;99.90;;;;;;5054895;28;20384;-69
2022/08/05 03:03:44;;;;;;;;;;;18.30;99.90;;;;;;5055492;28;20287;-69
2022/08/05 03:06:11;;;;;;;;;;;18.30;99.90;;;;;;5061079;28;19932;-69
2022/08/05 03:08:39;;;;;;;;;;;18.20;99.90;;;;;;5061108;28;19925;-69
2022/08/05 03:11:16;;;;;;;;;;;18.20;99.90;;;;;;5049697;28;19979;-69
2022/08/05 03:13:44;;;;;;;;;;;18.30;99.90;;;;;;5055480;28;19928;-69
2022/08/05 03:16:11;;;;;;;;;;;18.30;99.90;;;;;;5056994;28;19925;-69
2022/08/05 03:18:38;;;;;;;;;;;18.20;99.90;;;;;;5053778;28;19925;-69
2022/08/05 03:21:05;;;;;;;;;;;18.20;99.90;;;;;;5053562;28;20463;-69
2022/08/05 03:23:32;;;;;;;;;;;18.20;99.90;;;;;;5056646;28;19924;-69
2022/08/05 03:25:59;;;;;;;;;;;18.30;99.90;;;;;;5053094;28;19933;-69
2022/08/05 03:28:26;;;;;;;;;;;18.40;99.90;;;;;;5058724;28;19940;-69
2022/08/05 03:30:54;;;;;;;;;;;18.40;99.90;;;;;;5060160;28;19932;-69
2022/08/05 03:33:21;;;;;;;;;;;18.40;99.90;;;;;;5061414;28;19932;-70
2022/08/05 03:35:49;;;;;;;;;;;18.40;99.90;;;;;;5061206;28;19975;-69
2022/08/05 03:38:15;;;;;;;;;;;18.40;99.90;;;;;;5059240;28;20343;-69
2022/08/05 03:40:42;;;;;;;;;;;18.50;99.90;;;;;;5054531;28;19928;-69
2022/08/05 03:43:09;;;;;;;;;;;18.50;99.90;;;;;;5051867;28;19924;-69
2022/08/05 03:45:36;;;;;;;;;;;18.60;99.90;;;;;;5055734;28;19928;-69
2022/08/05 03:48:05;;;;;;;;;;;18.70;99.90;;;;;;5052969;28;19986;-69
2022/08/05 03:50:35;;;;;;;;;;;18.70;99.90;;;;;;5052474;28;19924;-69
2022/08/05 03:53:08;;;;;;;;;;;18.70;99.90;;;;;;5057261;28;19925;-69
2022/08/05 03:55:37;;;;;;;;;;;18.70;99.90;;;;;;5060888;28;20380;-69
2022/08/05 03:58:05;;;;;;;;;;;18.80;99.90;;;;;;5056505;28;19932;-69
2022/08/05 04:00:32;;;;;;;;;;;18.80;99.90;;;;;;5060432;28;19924;-69
2022/08/05 04:03:01;;;;;;;;;;;18.70;99.90;;;;;;5061167;28;19928;-69
2022/08/05 04:05:32;;;;;;;;;;;18.70;99.90;;;;;;5063099;28;19932;-69
2022/08/05 04:07:59;;;;;;;;;;;18.70;99.90;;;;;;5060680;28;19975;-69
2022/08/05 04:10:26;;;;;;;;;;;18.70;99.90;;;;;;5055891;28;19971;-69
2022/08/05 04:12:53;;;;;;;;;;;18.60;99.90;;;;;;5056917;28;19972;-69
2022/08/05 04:15:20;;;;;;;;;;;18.50;99.90;;;;;;5073525;28;19924;-69
2022/08/05 04:17:46;;;;;;;;;;;18.50;99.90;;;;;;5059830;28;19928;-69
2022/08/05 04:20:20;;;;;;;;;;;18.50;99.90;;;;;;5061491;28;19935;-69
2022/08/05 04:22:48;;;;;;;;;;;18.50;99.90;;;;;;5053041;28;20350;-69
2022/08/05 04:25:15;;;;;;;;;;;18.50;99.90;;;;;;5062041;28;19925;-69
2022/08/05 04:27:42;;;;;;;;;;;18.50;99.90;;;;;;5061092;28;19932;-69
2022/08/05 04:30:10;;;;;;;;;;;18.50;99.90;;;;;;5064569;28;19924;-69
2022/08/05 04:32:37;;;;;;;;;;;18.40;99.90;;;;;;5062354;28;19925;-69
2022/08/05 04:35:04;;;;;;;;;;;18.40;99.90;;;;;;5062030;28;19928;-69
2022/08/05 04:37:31;;;;;;;;;;;18.50;99.90;;;;;;5063435;28;19924;-69
2022/08/05 04:40:00;;;;;;;;;;;18.50;99.90;;;;;;5061785;28;19924;-69
2022/08/05 04:42:26;;;;;;;;;;;18.50;99.90;;;;;;5063747;28;19929;-69
2022/08/05 04:44:53;;;;;;;;;;;18.60;99.90;;;;;;5060846;28;20396;-69
2022/08/05 04:47:20;;;;;;;;;;;18.60;99.90;;;;;;5051149;28;20366;-69
2022/08/05 04:49:47;;;;;;;;;;;18.70;99.90;;;;;;5059076;28;19929;-70
2022/08/05 04:52:14;;;;;;;;;;;18.70;99.90;;;;;;5061928;28;20129;-69
2022/08/05 04:54:40;;;;;;;;;;;18.70;99.90;;;;;;5062185;28;19978;-70
2022/08/05 04:57:09;;;;;;;;;;;18.70;99.90;;;;;;5076470;28;20380;-70
2022/08/05 04:59:35;;;;;;;;;;;18.70;99.90;;;;;;5061627;28;19932;-69
2022/08/05 05:02:02;;;;;;;;;;;18.70;99.90;;;;;;5049381;28;19939;-69
2022/08/05 05:04:29;;;;;;;;;;;18.70;99.90;;;;;;5051275;28;19925;-70
2022/08/05 05:06:56;;;;;;;;;;;18.70;99.90;;;;;;5055576;28;20394;-69
2022/08/05 05:09:22;;;;;;;;;;;18.70;99.90;;;;;;5052092;28;19933;-69
2022/08/05 05:11:49;;;;;;;;;;;18.80;99.90;;;;;;5055784;28;19932;-69
2022/08/05 05:14:17;;;;;;;;;;;18.80;99.90;;;;;;5053044;28;20281;-69
2022/08/05 05:16:44;;;;;;;;;;;18.80;99.90;;;;;;5055283;28;19928;-69
2022/08/05 05:19:11;;;;;;;;;;;18.80;99.90;;;;;;5055628;28;20370;-69
2022/08/05 05:21:38;;;;;;;;;;;18.80;99.90;;;;;;5059164;28;19932;-69
2022/08/05 05:24:05;;;;;;;;;;;18.90;99.90;;;;;;5055084;28;19929;-69
2022/08/05 05:26:32;;;;;;;;;;;18.80;99.90;;;;;;5051365;28;19925;-69
2022/08/05 05:28:58;;;;;;;;;;;18.80;99.90;;;;;;5055671;28;19924;-69
2022/08/05 05:31:26;;;;;;;;;;;18.80;99.90;;;;;;5056035;28;19925;-69
2022/08/05 05:33:53;;;;;;;;;;;18.80;99.90;;;;;;5050989;28;19925;-68
2022/08/05 05:36:20;;;;;;;;;;;18.80;99.90;;;;;;5069399;28;19929;-69
2022/08/05 05:38:47;;;;;;;;;;;18.80;99.90;;;;;;5054285;28;20292;-69
2022/08/05 05:41:13;;;;;;;;;;;18.80;99.90;;;;;;5048141;28;19924;-68
2022/08/05 05:43:40;;;;;;;;;;;18.80;99.90;;;;;;5048141;28;19925;-69
2022/08/05 05:46:07;;;;;;;;;;;18.80;99.90;;;;;;5049286;28;19932;-68
2022/08/05 05:48:36;;;;;;;;;;;18.80;99.90;;;;;;5049443;28;20269;-69
2022/08/05 05:51:02;;;;;;;;;;;18.80;99.90;;;;;;5042254;28;19982;-69
2022/08/05 05:53:29;;;;;;;;;;;18.80;99.90;;;;;;5050875;28;19928;-69
2022/08/05 05:55:56;;;;;;;;;;;18.90;99.90;;;;;;5048947;28;20343;-68
2022/08/05 05:58:23;;;;;;;;;;;18.90;99.90;;;;;;5048803;28;19929;-69
2022/08/05 06:00:50;;;;;;;;;;;18.80;99.90;;;;;;5049637;28;19928;-69
2022/08/05 06:03:16;;;;;;;;;;;18.80;99.90;;;;;;5048827;28;19925;-68
2022/08/05 06:05:44;;;;;;;;;;;18.90;99.90;;;;;;5051873;28;19990;-69
2022/08/05 06:08:11;;;;;;;;;;;18.90;99.90;;;;;;5070057;28;19933;-72
2022/08/05 06:10:38;;;;;;;;;;;18.90;99.90;;;;;;5051630;28;19925;-68
2022/08/05 06:13:05;;;;;;;;;;;18.90;99.90;;;;;;5057707;28;19925;-69
2022/08/05 06:15:32;;;;;;;;;;;18.90;99.90;;;;;;5070189;28;19925;-69
2022/08/05 06:17:59;;;;;;;;;;;18.90;99.90;;;;;;5062805;28;19932;-69
2022/08/05 06:20:25;;;;;;;;;;;18.90;99.90;;;;;;5062442;28;19932;-69
2022/08/05 06:22:54;;;;;;;;;;;18.90;99.90;;;;;;5058934;28;19925;-69
2022/08/05 06:25:20;;;;;;;;;;;18.90;99.90;;;;;;5061624;28;20400;-69
2022/08/05 06:27:47;;;;;;;;;;;19.00;99.90;;;;;;5062736;28;19933;-69
2022/08/05 06:30:15;;;;;;;;;;;19.00;99.90;;;;;;5059782;28;19925;-69
2022/08/05 06:32:42;;;;;;;;;;;19.00;99.90;;;;;;5060513;28;20016;-69
2022/08/05 06:35:09;;;;;;;;;;;19.00;99.90;;;;;;5062731;28;20391;-68
2022/08/05 06:37:36;;;;;;;;;;;18.90;99.90;;;;;;5059509;28;19936;-69
2022/08/05 06:40:05;;;;;;;;;;;18.90;99.90;;;;;;5055490;28;19928;-69
2022/08/05 06:42:32;;;;;;;;;;;18.90;99.90;;;;;;5057979;28;19931;-69
2022/08/05 06:44:59;;;;;;;;;;;18.90;99.90;;;;;;5056319;28;19979;-68
2022/08/05 06:47:26;;;;;;;;;;;19.00;99.90;;;;;;5058328;28;19933;-69
2022/08/05 06:49:52;;;;;;;;;;;19.00;99.90;;;;;;5061511;28;19924;-68
2022/08/05 06:52:19;;;;;;;;;;;19.10;99.90;;;;;;5061214;28;19970;-68
2022/08/05 06:54:46;;;;;;;;;;;19.10;99.90;;;;;;5059785;28;19929;-68
2022/08/05 06:57:16;;;;;;;;;;;19.10;99.90;;;;;;5055241;28;19925;-68
2022/08/05 06:59:44;;;;;;;;;;;19.10;99.90;;;;;;5056392;28;19928;-68
2022/08/05 07:02:10;;;;;;;;;;;19.10;99.90;;;;;;5054630;28;19924;-68
2022/08/05 07:04:40;;;;;;;;;;;18.90;99.90;;;;;;5057863;28;19931;-69
2022/08/05 07:07:07;;;;;;;;;;;18.80;99.90;;;;;;5059236;28;20067;-68
2022/08/05 07:09:34;;;;;;;;;;;18.70;99.90;;;;;;5059403;28;19928;-69
2022/08/05 07:12:01;;;;;;;;;;;18.70;99.90;;;;;;5058121;28;19925;-68
2022/08/05 07:17:13;;;;;;;;;;;18.60;99.90;;;;;;5060190;28;19931;-69
2022/08/05 07:19:40;;;;;;;;;;;18.60;99.90;;;;;;5053200;28;19932;-68
2022/08/05 07:22:06;;;;;;;;;;;18.50;99.90;;;;;;5048078;28;19925;-68
2022/08/05 07:24:33;;;;;;;;;;;18.40;99.90;;;;;;5057471;28;19956;-69
2022/08/05 07:27:00;;;;;;;;;;;18.40;99.90;;;;;;5051943;28;19929;-69
2022/08/05 07:29:27;;;;;;;;;;;18.30;99.90;;;;;;5053244;28;19925;-67
2022/08/05 07:31:55;;;;;;;;;;;18.30;99.90;;;;;;5056422;28;19966;-67
2022/08/05 07:34:22;;;;;;;;;;;18.30;99.90;;;;;;5056104;28;19925;-68
2022/08/05 07:36:48;;;;;;;;;;;18.20;99.90;;;;;;5054300;28;19978;-68
2022/08/05 07:39:15;;;;;;;;;;;18.20;99.90;;;;;;5057670;28;19932;-68
2022/08/05 07:41:42;;;;;;;;;;;18.20;99.90;;;;;;5059857;28;19931;-68
2022/08/05 07:44:09;;;;;;;;;;;18.20;99.90;;;;;;5055109;28;19928;-68
2022/08/05 07:46:36;;;;;;;;;;;18.30;99.90;;;;;;5058022;28;19925;-68
2022/08/05 07:49:04;;;;;;;;;;;18.30;99.90;;;;;;5058270;28;19924;-67
2022/08/05 07:51:32;;;;;;;;;;;18.30;99.90;;;;;;5054343;28;19932;-68
2022/08/05 07:53:59;;;;;;;;;;;18.20;99.90;;;;;;5059754;28;19978;-68
2022/08/05 07:56:27;;;;;;;;;;;18.20;99.90;;;;;;5055481;28;19932;-68
2022/08/05 07:58:54;;;;;;;;;;;18.20;99.90;;;;;;5060886;28;20354;-67
2022/08/05 08:01:23;;;;;;;;;;;18.10;99.90;;;;;;5059781;28;19932;-68
2022/08/05 08:03:50;;;;;;;;;;;18.10;99.90;;;;;;5055672;28;19929;-68
2022/08/05 08:06:19;;;;;;;;;;;17.90;99.90;;;;;;5056365;28;20354;-68
2022/08/05 08:08:46;;;;;;;;;;;17.90;99.90;;;;;;5058473;28;20020;-68
2022/08/05 08:11:14;;;;;;;;;;;17.90;99.90;;;;;;5060056;28;20380;-69
2022/08/05 08:13:40;;;;;;;;;;;17.80;99.90;;;;;;5058017;28;19929;-68
2022/08/05 08:16:07;;;;;;;;;;;17.80;99.90;;;;;;5060096;28;20045;-68
2022/08/05 08:18:34;;;;;;;;;;;17.80;99.90;;;;;;5062411;28;19955;-68
2022/08/05 08:21:01;;;;;;;;;;;17.70;99.90;;;;;;5057425;28;19925;-68
2022/08/05 08:23:29;;;;;;;;;;;17.70;99.90;;;;;;5057717;28;19929;-68
2022/08/05 08:25:56;;;;;;;;;;;17.70;99.90;;;;;;5051898;28;19929;-68
2022/08/05 08:28:22;;;;;;;;;;;17.70;99.90;;;;;;5058354;28;19975;-68
2022/08/05 08:30:49;;;;;;;;;;;17.80;99.90;;;;;;5060589;28;19929;-68
2022/08/05 08:33:16;;;;;;;;;;;17.80;99.90;;;;;;5060374;28;19924;-68
2022/08/05 08:35:43;;;;;;;;;;;17.90;99.90;;;;;;5059937;28;19928;-68
2022/08/05 08:38:10;;;;;;;;;;;18.00;99.90;;;;;;5056544;28;19933;-68
2022/08/05 08:40:38;;;;;;;;;;;18.10;99.90;;;;;;5058651;28;19925;-68
2022/08/05 08:43:05;;;;;;;;;;;18.10;99.90;;;;;;5058423;28;19932;-68
2022/08/05 08:45:32;;;;;;;;;;;18.10;99.90;;;;;;5054008;28;19928;-68
2022/08/05 08:48:01;;;;;;;;;;;18.10;99.90;;;;;;5052815;28;19939;-68
2022/08/05 08:50:28;;;;;;;;;;;17.90;99.90;;;;;;5062487;28;20378;-68
2022/08/05 08:53:00;;;;;;;;;;;17.90;99.90;;;;;;5063588;28;20012;-68
2022/08/05 08:55:26;;;;;;;;;;;17.90;99.90;;;;;;5059394;28;19925;-68
2022/08/05 08:57:55;;;;;;;;;;;17.90;99.90;;;;;;5064655;28;19982;-68
2022/08/05 09:00:21;;;;;;;;;;;17.90;99.90;;;;;;5060264;28;19962;-68
2022/08/05 09:02:49;;;;;;;;;;;17.90;99.90;;;;;;5062701;28;19929;-68
2022/08/05 09:05:15;;;;;;;;;;;17.90;99.90;;;;;;5066320;28;19930;-68
2022/08/05 09:07:42;;;;;;;;;;;18.00;99.90;;;;;;5060499;28;19924;-68
2022/08/05 09:10:09;;;;;;;;;;;18.10;99.90;;;;;;5055264;28;19928;-68
2022/08/05 09:12:37;;;;;;;;;;;18.10;99.90;;;;;;5057991;28;19932;-68
2022/08/05 09:15:06;;;;;;;;;;;18.10;99.90;;;;;;5057094;28;20431;-68
2022/08/05 09:17:33;;;;;;;;;;;18.30;99.90;;;;;;5058027;28;19929;-68
2022/08/05 09:20:00;;;;;;;;;;;18.30;99.90;;;;;;5062246;28;19928;-68
2022/08/05 09:22:27;;;;;;;;;;;18.40;99.90;;;;;;5059015;28;19928;-68
2022/08/05 09:24:57;;;;;;;;;;;18.60;99.90;;;;;;5059549;28;19925;-68
2022/08/05 09:27:32;;;;;;;;;;;18.70;99.90;;;;;;5057085;28;20373;-68
2022/08/05 09:29:59;;;;;;;;;;;18.80;99.90;;;;;;5068606;28;20019;-68
2022/08/05 09:32:36;;;;;;;;;;;19.00;99.90;;;;;;5055435;28;19932;-69
2022/08/05 09:35:10;;;;;;;;;;;19.10;99.90;;;;;;5070618;28;19928;-68
2022/08/05 09:37:36;;;;;;;;;;;19.20;99.90;;;;;;5056966;28;19925;-69
2022/08/05 09:40:04;;;;;;;;;;;19.30;99.90;;;;;;5061860;28;19928;-69
2022/08/05 09:42:39;;;;;;;;;;;19.20;99.90;;;;;;5058676;28;20343;-68
2022/08/05 09:45:07;;;;;;;;;;;19.10;99.90;;;;;;5074788;28;20363;-68
2022/08/05 09:47:40;;;;;;;;;;;19.10;99.90;;;;;;5058799;28;19924;-68
2022/08/05 09:50:07;;;;;;;;;;;19.30;99.90;;;;;;5058949;28;19924;-68
2022/08/05 09:52:34;;;;;;;;;;;19.30;99.90;;;;;;5060085;28;19925;-68
2022/08/05 09:55:02;;;;;;;;;;;19.30;99.90;;;;;;5062260;28;19924;-69
2022/08/05 09:57:29;;;;;;;;;;;19.50;99.90;;;;;;5060302;28;19928;-69
2022/08/05 09:59:57;;;;;;;;;;;19.60;99.90;;;;;;5062322;28;19932;-69
2022/08/05 10:02:31;;;;;;;;;;;19.60;99.90;;;;;;5056744;28;19929;-68
2022/08/05 10:05:04;;;;;;;;;;;19.50;99.90;;;;;;5053787;28;19979;-68
2022/08/05 10:07:48;;;;;;;;;;;19.60;99.90;;;;;;5057009;28;19951;-69
2022/08/05 10:10:15;;;;;;;;;;;19.60;99.90;;;;;;5056431;28;20416;-68
2022/08/05 10:12:43;;;;;;;;;;;19.60;99.90;;;;;;5060319;28;19924;-69
2022/08/05 10:15:25;;;;;;;;;;;19.80;99.90;;;;;;5060035;28;20357;-68
2022/08/05 10:18:03;;;;;;;;;;;20.00;99.90;;;;;;5060899;28;19982;-69
2022/08/05 10:20:31;;;;;;;;;;;20.20;99.90;;;;;;5063688;28;19928;-69
2022/08/05 10:22:58;;;;;;;;;;;20.40;99.90;;;;;;5070933;28;19985;-68
2022/08/05 10:25:25;;;;;;;;;;;20.60;99.90;;;;;;5057869;28;20387;-68
2022/08/05 10:27:52;;;;;;;;;;;20.80;99.90;;;;;;5058756;28;19933;-68
2022/08/05 10:30:19;;;;;;;;;;;21.00;99.90;;;;;;5055996;28;19931;-68
2022/08/05 10:32:46;;;;;;;;;;;21.20;99.90;;;;;;5058682;28;19924;-68
2022/08/05 10:35:13;;;;;;;;;;;21.40;99.90;;;;;;5053639;28;19929;-68
2022/08/05 10:37:41;;;;;;;;;;;21.70;99.90;;;;;;5055887;28;19928;-69
2022/08/05 10:40:14;;;;;;;;;;;21.80;99.90;;;;;;5052761;28;19987;-69
2022/08/05 10:42:42;;;;;;;;;;;21.90;99.90;;;;;;5054810;28;19929;-69
2022/08/05 10:45:11;;;;;;;;;;;22.10;99.90;;;;;;5053206;28;19929;-69
2022/08/05 10:47:43;;;;;;;;;;;22.10;99.90;;;;;;5050329;28;19929;-69
2022/08/05 10:50:12;;;;;;;;;;;22.10;99.90;;;;;;5056140;28;19939;-69
2022/08/05 10:52:42;;;;;;;;;;;22.40;99.90;;;;;;5058663;28;19951;-69
2022/08/05 10:55:10;;;;;;;;;;;22.30;99.90;;;;;;5060731;28;20318;-69
2022/08/05 10:57:40;;;;;;;;;;;22.40;99.90;;;;;;5055186;28;19929;-69
2022/08/05 11:00:10;;;;;;;;;;;22.80;99.90;;;;;;5058016;28;19925;-69
2022/08/05 11:02:37;;;;;;;;;;;23.10;99.90;;;;;;5059267;28;19924;-69
2022/08/05 11:05:06;;;;;;;;;;;23.30;99.90;;;;;;5060210;28;20358;-69
2022/08/05 11:07:33;;;;;;;;;;;23.50;99.90;;;;;;5057971;28;19928;-69
2022/08/05 11:10:02;;;;;;;;;;;23.60;99.90;;;;;;5058831;28;20292;-69
2022/08/05 11:12:43;;;;;;;;;;;23.80;99.90;;;;;;5058201;28;20010;-69
2022/08/05 11:15:10;;;;;;;;;;;23.50;99.90;;;;;;5060457;28;19963;-69
2022/08/05 11:17:37;;;;;;;;;;;23.60;99.90;;;;;;5055667;28;19947;-69
2022/08/05 11:20:05;;;;;;;;;;;23.50;99.90;;;;;;5063470;28;19932;-69
2022/08/05 11:22:39;;;;;;;;;;;23.40;99.90;;;;;;5054298;28;19929;-69
2022/08/05 11:25:24;;;;;;;;;;;23.50;99.90;;;;;;5062273;28;20289;-69
2022/08/05 11:27:53;;;;;;;;;;;23.80;99.90;;;;;;5049846;28;19925;-69
2022/08/05 11:30:19;;;;;;;;;;;24.10;99.90;;;;;;5058705;28;20281;-69
2022/08/05 11:32:46;;;;;;;;;;;24.30;99.90;;;;;;5059172;28;19929;-69
2022/08/05 11:35:28;;;;;;;;;;;24.10;99.90;;;;;;5055375;28;19929;-68
2022/08/05 11:38:03;;;;;;;;;;;24.40;99.90;;;;;;5073988;28;19928;-68
2022/08/05 11:40:49;;;;;;;;;;;24.90;99.90;;;;;;5059944;28;19983;-69
2022/08/05 11:43:22;;;;;;;;;;;26.10;99.90;;;;;;5057032;28;19976;-69
2022/08/05 11:45:49;;;;;;;;;;;27.80;99.90;;;;;;5058867;28;19929;-69
2022/08/05 11:48:15;;;;;;;;;;;28.20;99.90;;;;;;5058482;28;19928;-69
2022/08/05 11:50:42;;;;;;;;;;;29.40;99.90;;;;;;5054540;28;19940;-69
2022/08/05 11:53:09;;;;;;;;;;;28.40;99.90;;;;;;5055557;28;20407;-69
2022/08/05 11:55:36;;;;;;;;;;;27.70;99.90;;;;;;5058681;28;19970;-68
2022/08/05 11:58:02;;;;;;;;;;;26.60;99.90;;;;;;5057704;28;20424;-68
2022/08/05 12:00:31;;;;;;;;;;;26.20;99.90;;;;;;5055513;28;20388;-69
2022/08/05 12:02:58;;;;;;;;;;;26.10;99.90;;;;;;5057280;28;19925;-70
2022/08/05 12:05:25;;;;;;;;;;;25.50;99.90;;;;;;5057726;28;19932;-69
2022/08/05 12:07:52;;;;;;;;;;;25.20;99.90;;;;;;5056791;28;20307;-68
2022/08/05 12:10:19;;;;;;;;;;;25.80;99.90;;;;;;5054501;28;19925;-69
2022/08/05 12:12:46;;;;;;;;;;;27.00;99.90;;;;;;5055335;28;19956;-69
2022/08/05 12:15:18;;;;;;;;;;;28.60;99.90;;;;;;5060181;28;19948;-69
2022/08/05 12:17:47;;;;;;;;;;;29.60;99.90;;;;;;5056348;28;19925;-69
2022/08/05 12:20:13;;;;;;;;;;;29.50;99.90;;;;;;5058843;28;19925;-69
2022/08/05 12:22:40;;;;;;;;;;;29.90;99.90;;;;;;5060632;28;19925;-70
2022/08/05 12:25:07;;;;;;;;;;;30.70;99.90;;;;;;5062347;28;20019;-69
2022/08/05 12:27:34;;;;;;;;;;;30.00;99.90;;;;;;5061287;28;19929;-69
2022/08/05 12:30:02;;;;;;;;;;;29.60;99.90;;;;;;5059317;28;19929;-69
2022/08/05 12:32:31;;;;;;;;;;;30.40;99.90;;;;;;5061408;28;19925;-69
2022/08/05 12:34:59;;;;;;;;;;;30.70;99.90;;;;;;5064655;28;19924;-69
2022/08/05 12:37:26;;;;;;;;;;;31.60;99.90;;;;;;5061299;28;19928;-70
2022/08/05 12:39:53;;;;;;;;;;;32.40;99.90;;;;;;5075381;28;19932;-69
2022/08/05 12:42:20;;;;;;;;;;;31.90;99.90;;;;;;5058460;28;20035;-70
2022/08/05 12:44:47;;;;;;;;;;;31.10;99.90;;;;;;5059701;28;19935;-70
2022/08/05 12:47:25;;;;;;;;;;;29.70;99.90;;;;;;5058056;28;19932;-70
2022/08/05 12:49:52;;;;;;;;;;;29.90;99.90;;;;;;5058167;28;19932;-70
2022/08/05 12:52:21;;;;;;;;;;;30.70;99.90;;;;;;5061704;28;19925;-69
2022/08/05 12:54:49;;;;;;;;;;;31.10;99.90;;;;;;5061546;28;19929;-70
2022/08/05 12:57:16;;;;;;;;;;;31.50;99.90;;;;;;5055838;28;19929;-70
2022/08/05 12:59:44;;;;;;;;;;;31.90;99.90;;;;;;5058902;28;19933;-69
2022/08/05 13:02:12;;;;;;;;;;;30.70;99.90;;;;;;5061676;28;20296;-69
2022/08/05 13:04:40;;;;;;;;;;;29.70;99.90;;;;;;5060437;28;20346;-69
2022/08/05 13:07:11;;;;;;;;;;;29.90;99.90;;;;;;5062580;28;20396;-70
2022/08/05 13:09:42;;;;;;;;;;;31.10;99.90;;;;;;5054102;28;21347;-70
2022/08/05 13:12:09;;;;;;;;;;;32.60;99.90;;;;;;5046781;28;19929;-70
2022/08/05 13:14:37;;;;;;;;;;;32.70;99.90;;;;;;5048764;28;20326;-70
2022/08/05 13:17:08;;;;;;;;;;;32.70;99.90;;;;;;5053413;28;20019;-69
2022/08/05 13:19:34;;;;;;;;;;;31.30;99.90;;;;;;5054692;28;20011;-69
2022/08/05 13:22:01;;;;;;;;;;;29.60;99.90;;;;;;5073875;28;19924;-69
2022/08/05 13:24:28;;;;;;;;;;;28.20;99.90;;;;;;5062044;28;19925;-69
2022/08/05 13:26:56;;;;;;;;;;;27.00;99.90;;;;;;5046728;28;19925;-74
2022/08/05 13:29:23;;;;;;;;;;;25.80;99.90;;;;;;5053668;28;19924;-69
2022/08/05 13:31:50;;;;;;;;;;;24.70;99.90;;;;;;5068249;28;19925;-69
2022/08/05 13:34:16;;;;;;;;;;;23.90;99.90;;;;;;5066244;28;19935;-69
2022/08/05 13:36:43;;;;;;;;;;;23.40;99.90;;;;;;5061434;28;19924;-69
2022/08/05 13:39:12;;;;;;;;;;;23.00;99.90;;;;;;5058550;28;19929;-69
2022/08/05 13:41:39;;;;;;;;;;;22.80;99.90;;;;;;5060907;28;19925;-69
2022/08/05 13:44:07;;;;;;;;;;;22.70;99.90;;;;;;5056973;28;19925;-69
2022/08/05 13:46:34;;;;;;;;;;;22.80;99.90;;;;;;5050888;28;20019;-69
2022/08/05 13:49:01;;;;;;;;;;;22.70;99.90;;;;;;5071054;28;19929;-69
2022/08/05 13:51:29;;;;;;;;;;;22.60;99.90;;;;;;5058837;28;20302;-69
2022/08/05 13:53:56;;;;;;;;;;;22.50;99.90;;;;;;5054167;28;19924;-69
2022/08/05 13:56:23;;;;;;;;;;;22.50;99.90;;;;;;5049109;28;19937;-69
2022/08/05 13:58:50;;;;;;;;;;;22.50;99.90;;;;;;5062892;28;19925;-68
2022/08/05 14:01:18;;;;;;;;;;;22.50;99.90;;;;;;5049068;28;19929;-70
2022/08/05 14:05:08;;;;;;;;;;;22.60;99.90;;;;;;5054252;28;19929;-70
2022/08/05 14:06:31;;;;;;;;;;;22.60;99.90;;;;;;5051457;28;20446;-69
2022/08/05 14:08:57;;;;;;;;;;;22.70;99.90;;;;;;5054997;28;19921;-68
2022/08/05 14:11:24;;;;;;;;;;;22.80;99.90;;;;;;5054279;28;19976;-69
2022/08/05 14:13:51;;;;;;;;;;;22.90;99.90;;;;;;5050838;28;19979;-69
2022/08/05 14:16:19;;;;;;;;;;;23.00;99.90;;;;;;5065156;28;19932;-69
2022/08/05 14:18:45;;;;;;;;;;;23.00;99.90;;;;;;5048360;28;19963;-69
2022/08/05 14:21:12;;;;;;;;;;;23.10;99.90;;;;;;5053965;28;19975;-69
2022/08/05 14:23:39;;;;;;;;;;;23.30;99.90;;;;;;5054241;28;19929;-69